Portada
METAR-TAF:

METAR-TAF

Aeropuertos :

Aeropuerto de Berna

Berna, Suiza

latitud: 46-55N, longitud: 007-30E, altitud: 505 m

Observación

El informe se hizo hace 30 minutos, a las 03:20 UTC
Viento 1 kt del sureste
Temperatura -2°C
Humedad 100%
Presión 1015 hPa
Visibilidad: 9000 m
Cielo cubierto a una altura de 8500 ft

METAR: LSZB 090320Z AUTO 14001KT 9000 OVC085 M02/M02 Q1015

Hora: 04:50 (03:50 UTC)

Pronóstico

El informe se hizo hace 13 horas y 25 minutos, a las 14:25 UTC
Pronóstico válido del 08 a las 15 UTC al 08 a las 24 UTC
Viento 2 kt con dirección variable
Visibilidad 10 km o más
sin nubes por debajo de 1500 m y sin presencia de cumulonimbus.
Temporalmente
del 08 a las 15 UTC al 08 a las 17 UTC
Visibilidad 10 km o más
Escasas nubes a una altura de 4000 ft

TAF: LSZB 081425Z 0815/0824 VRB02KT CAVOK TEMPO 0815/0817 9999 FEW040

Observaciones y pronósticos meteorológicos de más de 4000 aeropuertos (mensajes METAR y TAF).

Los puntos amarillos y rojos representan las estaciones disponibles.

Ponga el ratón en el punto deseado para ver el nombre de la estación.

Haga clic para ver las observaciones y los pronósticos meteorológicos.

Para cambiar el mapa : haga clic en los botones verdes con una cruz de color negro para hacer un zoom, en el botón verde con un guión para alejar o en las flechas verdes para mapas adyacentes.


METAR-TAF: